Ault, Kentucky
Current Conditions -  °F | °C
As of 6:10 AM on Saturday 25 Oct 2014 (Local Time) from KSYM Reporting Station
Haze Haze  
Wind Chill: 41°   Ceiling: 2400
Heat Index: 41°   Visibility: 4mi
Dew Point: 41°   Wind: 3mph
Humidity: 100%   Direction: 160°SSE
Pressure: 30.06"   Gusts: NA
Location:  38.3543°N, 83.1837°W
Report Text: KSYM 251010Z AUTO 16003KT 4SM BR BKN024 BKN035 05/05 A3006 RMK AO2
Loading
Personal Weather Stations






























Interactive Weather Map
Tropical Storm Tracking
New forecast layout! Learn more

10-Day Weather Forecast

Advertisements
Track Severe Weather on mobile